Time;durP1;ratioP1;P1;durP2;ratioP2;P2;SDS_P1;SDS_P2;PMS_P1;PMS_P2;Temp;Humidity;BMP_temperature;BMP_pressure;BME280_temperature;BME280_humidity;BME280_pressure;Samples;Min_cycle;Max_cycle;Signal;HPM_P1;HPM_P2
2022/07/24 00:04:38;;;;;;;9.73;7.80;;;26.10;47.80;;;;;;5148413;27;20423;-90
2022/07/24 00:15:21;;;;;;;9.17;7.43;;;25.80;48.10;;;;;;5129162;27;20471;-89
2022/07/24 00:17:48;;;;;;;9.80;7.83;;;25.80;48.30;;;;;;5111530;27;20494;-89
2022/07/24 00:25:14;;;;;;;8.97;6.97;;;25.40;48.60;;;;;;5124869;27;20485;-89
2022/07/24 00:32:16;;;;;;;10.73;7.30;;;25.40;48.80;;;;;;5126969;27;20821;-90
2022/07/24 00:34:43;;;;;;;8.90;7.70;;;25.40;47.90;;;;;;5100558;27;20449;-89
2022/07/24 00:40:27;;;;;;;8.90;7.30;;;25.40;48.80;;;;;;5105940;27;21179;-89
2022/07/24 00:47:02;;;;;;;9.63;8.37;;;24.80;49.30;;;;;;5132494;27;21020;-89
2022/07/24 00:50:20;;;;;;;10.00;7.30;;;25.00;48.80;;;;;;5104810;27;20484;-90
2022/07/24 00:53:38;;;;;;;8.00;7.20;;;25.10;48.80;;;;;;5128481;27;20453;-89
2022/07/24 00:56:45;;;;;;;10.40;6.30;;;25.10;48.20;;;;;;5132078;27;20433;-89
2022/07/24 00:59:12;;;;;;;8.70;7.00;;;25.10;49.20;;;;;;5127332;27;20446;-89
2022/07/24 01:02:30;;;;;;;10.50;7.40;;;25.10;49.00;;;;;;5130029;27;20476;-90
2022/07/24 01:04:58;;;;;;;8.63;7.43;;;25.20;49.20;;;;;;5127607;27;20445;-90
2022/07/24 01:07:25;;;;;;;11.83;7.23;;;25.20;49.30;;;;;;5123898;27;20446;-89
2022/07/24 01:09:53;;;;;;;8.50;7.70;;;25.30;49.60;;;;;;5129341;27;20621;-89
2022/07/24 01:15:38;;;;;;;8.30;7.40;;;25.30;50.00;;;;;;5140757;27;20616;-89
2022/07/24 01:18:31;;;;;;;13.43;7.63;;;25.30;49.60;;;;;;5126509;27;20447;-90
2022/07/24 01:21:00;;;;;;;9.90;7.60;;;25.30;49.70;;;;;;5114626;27;20532;-89
2022/07/24 01:23:27;;;;;;;10.33;7.90;;;25.40;49.40;;;;;;5122296;27;20477;-89
2022/07/24 01:26:20;;;;;;;8.47;7.13;;;25.40;49.30;;;;;;5137801;27;20488;-90
2022/07/24 01:28:47;;;;;;;10.17;6.70;;;25.40;49.40;;;;;;5127082;27;20967;-89
2022/07/24 01:31:14;;;;;;;9.50;8.27;;;25.40;49.40;;;;;;5130276;27;20430;-89
2022/07/24 01:33:41;;;;;;;8.67;7.50;;;25.40;49.80;;;;;;5143208;27;20461;-89
2022/07/24 01:36:35;;;;;;;8.30;7.50;;;25.40;50.40;;;;;;5146361;27;20440;-90
2022/07/24 01:39:02;;;;;;;11.27;7.80;;;25.30;50.40;;;;;;5095145;27;20441;-89
2022/07/24 01:41:30;;;;;;;9.03;7.67;;;25.30;50.50;;;;;;5107621;27;20809;-89
2022/07/24 01:43:57;;;;;;;10.00;8.60;;;25.30;51.00;;;;;;5133826;27;20807;-89
2022/07/24 01:46:25;;;;;;;7.83;7.03;;;25.30;51.00;;;;;;5128232;27;20525;-89
2022/07/24 01:52:43;;;;;;;7.87;7.07;;;25.30;51.10;;;;;;5139282;27;20457;-90
2022/07/24 01:55:11;;;;;;;10.43;7.60;;;25.30;50.20;;;;;;5130945;27;20483;-89
2022/07/24 01:58:29;;;;;;;9.37;7.27;;;25.20;50.40;;;;;;5121445;27;20449;-90
2022/07/24 02:00:56;;;;;;;12.33;7.83;;;25.30;50.20;;;;;;5128193;27;20543;-89
2022/07/24 02:06:42;;;;;;;8.17;7.33;;;25.20;50.50;;;;;;5109180;27;20497;-90
2022/07/24 02:09:10;;;;;;;8.77;6.87;;;25.20;50.60;;;;;;5048721;27;20433;-89
2022/07/24 02:11:37;;;;;;;10.10;8.43;;;25.20;50.50;;;;;;5115389;27;20452;-90
2022/07/24 02:14:30;;;;;;;8.10;7.30;;;25.10;50.40;;;;;;5094585;27;20658;-90
2022/07/24 02:16:57;;;;;;;12.60;8.20;;;25.10;50.70;;;;;;5124373;27;20544;-90
2022/07/24 02:19:24;;;;;;;9.67;8.03;;;25.10;51.10;;;;;;5090799;27;20555;-90
2022/07/24 02:21:51;;;;;;;12.37;7.57;;;25.00;51.20;;;;;;5130814;27;20515;-89
2022/07/24 02:24:20;;;;;;;11.20;8.47;;;25.00;51.70;;;;;;5141001;27;20535;-90
2022/07/24 02:26:47;;;;;;;7.90;7.20;;;25.10;52.00;;;;;;5106733;27;20579;-90
2022/07/24 02:32:42;;;;;;;17.73;7.80;;;25.00;51.40;;;;;;5116866;27;20472;-89
2022/07/24 02:36:00;;;;;;;10.40;7.50;;;24.90;51.60;;;;;;5135180;27;20445;-89
2022/07/24 02:39:17;;;;;;;9.10;8.20;;;25.00;51.50;;;;;;5126304;27;20452;-89
2022/07/24 02:41:45;;;;;;;11.80;7.90;;;24.90;51.40;;;;;;5132078;27;20491;-89
2022/07/24 02:48:19;;;;;;;8.13;7.33;;;24.80;51.60;;;;;;5136534;27;20431;-89
2022/07/24 02:50:46;;;;;;;12.80;8.37;;;24.70;51.70;;;;;;5125952;27;20460;-88
2022/07/24 02:58:12;;;;;;;9.20;8.20;;;24.70;52.20;;;;;;5127685;27;20463;-89
2022/07/24 03:01:29;;;;;;;8.53;6.80;;;24.70;52.30;;;;;;5143527;27;20452;-89
2022/07/24 03:04:23;;;;;;;10.80;7.27;;;24.70;52.10;;;;;;5145568;27;20960;-89
2022/07/24 03:06:50;;;;;;;8.10;7.30;;;24.70;51.60;;;;;;5131298;27;20458;-89
2022/07/24 03:13:25;;;;;;;9.00;7.27;;;24.70;51.80;;;;;;5101686;27;20440;-90
2022/07/24 03:16:43;;;;;;;10.53;7.77;;;24.60;51.50;;;;;;5145420;27;20992;-90
2022/07/24 03:23:42;;;;;;;8.50;6.60;;;24.50;51.30;;;;;;5142817;27;20504;-89
2022/07/24 03:30:17;;;;;;;7.77;6.97;;;24.50;50.90;;;;;;5104702;27;20412;-89
2022/07/24 03:32:44;;;;;;;8.50;7.30;;;24.40;50.70;;;;;;5111052;27;20650;-90
2022/07/24 03:39:19;;;;;;;7.10;6.43;;;24.40;51.80;;;;;;5139636;27;20485;-90
2022/07/24 03:41:46;;;;;;;8.93;7.50;;;24.30;52.30;;;;;;5121026;27;21409;-91
2022/07/24 03:44:13;;;;;;;11.77;7.67;;;24.30;52.20;;;;;;5133264;27;20440;-89
2022/07/24 03:50:48;;;;;;;10.40;6.43;;;24.30;51.50;;;;;;5141744;27;20432;-89
2022/07/24 03:53:15;;;;;;;7.63;6.77;;;24.20;52.00;;;;;;5106826;27;20453;-88
2022/07/24 03:59:52;;;;;;;7.70;6.80;;;24.20;51.60;;;;;;5128152;27;20767;-89
2022/07/24 04:02:19;;;;;;;9.43;7.37;;;24.10;52.10;;;;;;5100686;27;20464;-89
2022/07/24 04:04:46;;;;;;;9.60;7.83;;;24.00;52.50;;;;;;5143220;27;20437;-89
2022/07/24 04:11:45;;;;;;;8.50;7.30;;;24.10;53.00;;;;;;5122913;27;20528;-91
2022/07/24 04:14:12;;;;;;;11.03;7.63;;;24.00;52.80;;;;;;5091404;27;21294;-89
2022/07/24 04:19:58;;;;;;;8.40;7.60;;;24.10;52.30;;;;;;5144970;27;20453;-91
2022/07/24 04:26:31;;;;;;;8.30;7.10;;;24.10;52.20;;;;;;5114958;27;20950;-89
2022/07/24 04:28:58;;;;;;;10.80;7.23;;;24.10;52.80;;;;;;5130708;27;21256;-90
2022/07/24 04:35:34;;;;;;;9.20;8.20;;;24.10;53.50;;;;;;5125443;27;20428;-91
2022/07/24 04:38:01;;;;;;;11.30;7.80;;;24.10;53.70;;;;;;5135856;27;20448;-90
2022/07/24 04:40:28;;;;;;;9.13;7.40;;;24.10;53.60;;;;;;5131561;27;20874;-90
2022/07/24 04:46:12;;;;;;;9.70;8.10;;;24.20;53.30;;;;;;5110490;27;20466;-89
2022/07/24 04:48:39;;;;;;;10.87;6.90;;;24.20;53.20;;;;;;5110379;27;20446;-90
2022/07/24 05:00:57;;;;;;;9.57;7.73;;;24.10;53.00;;;;;;5110972;27;20425;-92
2022/07/24 05:07:57;;;;;;;12.20;7.57;;;24.10;52.90;;;;;;5126102;27;21182;-90
2022/07/24 05:10:24;;;;;;;9.50;7.63;;;24.10;52.40;;;;;;5131724;27;21117;-92
2022/07/24 05:16:59;;;;;;;10.13;7.20;;;24.10;53.40;;;;;;5128926;27;20421;-90
2022/07/24 05:19:26;;;;;;;10.47;7.80;;;24.30;53.30;;;;;;5086842;27;20481;-90
2022/07/24 05:21:53;;;;;;;9.13;7.77;;;24.30;53.30;;;;;;5130950;27;20548;-89
2022/07/24 05:24:21;;;;;;;8.07;7.17;;;24.30;53.30;;;;;;5129104;27;20572;-85
2022/07/24 05:31:22;;;;;;;7.90;6.80;;;24.10;53.70;;;;;;5147791;27;20511;-86
2022/07/24 05:37:56;;;;;;;7.40;6.70;;;24.30;53.70;;;;;;5132238;27;21179;-86
2022/07/24 05:40:25;;;;;;;8.40;6.60;;;24.20;53.70;;;;;;5125299;27;20453;-86
2022/07/24 05:46:37;;;;;;;9.40;6.43;;;24.60;53.20;;;;;;5112038;27;21222;-86
2022/07/24 05:53:11;;;;;;;8.13;7.33;;;24.70;52.70;;;;;;5127384;27;20455;-87
2022/07/24 05:55:39;;;;;;;13.20;8.23;;;24.90;52.90;;;;;;5110717;27;20540;-86
2022/07/24 06:07:10;;;;;;;9.77;6.60;;;25.30;50.60;;;;;;5144558;27;20462;-85
2022/07/24 06:10:28;;;;;;;9.43;6.50;;;25.30;50.70;;;;;;5146126;27;20449;-86
2022/07/24 06:22:22;;;;;;;6.93;6.20;;;25.60;49.60;;;;;;5128779;27;20943;-85
2022/07/24 06:29:23;;;;;;;6.73;6.03;;;25.90;49.00;;;;;;5122143;27;20437;-87
2022/07/24 06:31:50;;;;;;;8.27;6.10;;;25.90;47.90;;;;;;5129357;27;20532;-87
2022/07/24 06:37:36;;;;;;;7.53;5.60;;;26.10;47.40;;;;;;5144195;27;20441;-85
2022/07/24 06:40:54;;;;;;;7.07;6.27;;;26.30;46.90;;;;;;5108567;27;20437;-87
2022/07/24 06:48:45;;;;;;;7.53;6.37;;;26.20;47.10;;;;;;5141140;27;20429;-86
2022/07/24 06:51:12;;;;;;;6.60;5.20;;;26.50;46.30;;;;;;5103171;27;20535;-86
2022/07/24 06:58:12;;;;;;;5.67;5.10;;;26.10;46.60;;;;;;5138888;27;20534;-86
2022/07/24 07:01:30;;;;;;;6.53;5.33;;;26.60;46.20;;;;;;5139849;27;21251;-88
2022/07/24 07:13:26;;;;;;;5.83;5.33;;;26.50;45.40;;;;;;5124439;27;21316;-89
2022/07/24 07:20:01;;;;;;;5.93;5.00;;;26.90;44.60;;;;;;5142657;27;21161;-90
2022/07/24 07:22:28;;;;;;;5.20;4.80;;;26.80;44.50;;;;;;5139271;27;20547;-90
2022/07/24 07:33:58;;;;;;;5.90;5.30;;;27.20;43.90;;;;;;5137144;27;20451;-88
2022/07/24 07:40:58;;;;;;;11.60;6.27;;;27.30;43.60;;;;;;5139337;27;20432;-89
2022/07/24 07:43:25;;;;;;;6.27;5.67;;;27.30;43.70;;;;;;5101164;27;20541;-90
2022/07/24 07:54:08;;;;;;;5.77;5.00;;;28.00;42.20;;;;;;5107450;27;21007;-87
2022/07/24 07:57:27;;;;;;;5.40;4.90;;;28.20;41.80;;;;;;5105669;27;20445;-89
2022/07/24 08:04:28;;;;;;;5.87;5.27;;;28.50;41.10;;;;;;5123375;27;21355;-88
2022/07/24 08:07:46;;;;;;;6.73;6.03;;;28.60;41.50;;;;;;5115605;27;20513;-88
2022/07/24 08:10:39;;;;;;;6.60;6.00;;;28.70;40.40;;;;;;5136845;27;20452;-91
2022/07/24 08:13:06;;;;;;;6.27;5.77;;;29.00;40.90;;;;;;5107385;27;20461;-87
2022/07/24 08:16:24;;;;;;;10.47;7.03;;;29.20;40.40;;;;;;5139780;27;20460;-89
2022/07/24 08:18:51;;;;;;;6.30;5.70;;;29.50;40.30;;;;;;5120395;27;20456;-88
2022/07/24 08:21:21;;;;;;;6.67;5.60;;;29.40;39.50;;;;;;5139322;27;20453;-90
2022/07/24 08:23:49;;;;;;;9.10;5.70;;;29.40;39.70;;;;;;5124272;27;20468;-88
2022/07/24 08:26:16;;;;;;;6.47;5.63;;;29.60;39.90;;;;;;5138763;27;20445;-87
2022/07/24 08:28:43;;;;;;;6.63;6.03;;;29.90;39.30;;;;;;5105643;27;20473;-87
2022/07/24 08:31:10;;;;;;;7.10;6.30;;;30.00;38.50;;;;;;5137779;27;20464;-86
2022/07/24 08:33:37;;;;;;;6.87;6.10;;;30.00;38.30;;;;;;5102955;27;20469;-88
2022/07/24 08:45:11;;;;;;;6.20;5.70;;;30.20;38.60;;;;;;5139043;27;20417;-88
2022/07/24 09:00:31;;;;;;;6.50;5.90;;;31.10;36.80;;;;;;5137939;27;20429;-88
2022/07/24 09:07:31;;;;;;;6.30;5.70;;;31.30;36.10;;;;;;5139668;27;20452;-88
2022/07/24 09:10:00;;;;;;;6.60;5.97;;;31.70;35.80;;;;;;5108057;27;20440;-87
2022/07/24 09:41:20;;;;;;;6.50;5.90;;;32.50;32.10;;;;;;5147112;27;20910;-88
2022/07/24 09:52:33;;;;;;;6.73;6.10;;;32.60;32.00;;;;;;5140307;27;20448;-90
2022/07/24 09:55:01;;;;;;;5.90;5.40;;;33.00;31.90;;;;;;5139310;27;20493;-88
2022/07/24 10:01:45;;;;;;;7.97;6.73;;;33.20;31.80;;;;;;5133538;27;20489;-85
2022/07/24 10:12:32;;;;;;;8.30;6.57;;;33.50;31.00;;;;;;5143570;27;20473;-88
2022/07/24 10:15:00;;;;;;;7.27;6.40;;;33.60;31.40;;;;;;5100582;27;20473;-89
2022/07/24 11:09:28;;;;;;;7.47;6.27;;;33.90;29.70;;;;;;5134137;27;20441;-87
2022/07/24 11:12:07;;;;;;;6.97;6.33;;;33.90;30.60;;;;;;5119677;27;20537;-87
2022/07/24 11:35:36;;;;;;;7.53;6.77;;;34.60;28.80;;;;;;5123129;27;20528;-89
2022/07/24 11:38:06;;;;;;;9.03;6.80;;;34.80;29.80;;;;;;5141949;27;20450;-88
2022/07/24 11:44:42;;;;;;;6.90;6.30;;;35.30;28.40;;;;;;5125295;27;20433;-88
2022/07/24 11:47:13;;;;;;;6.50;5.90;;;35.30;27.90;;;;;;5121595;27;20469;-88
2022/07/24 12:09:53;;;;;;;7.60;6.90;;;35.10;27.70;;;;;;5124098;27;20436;-87
2022/07/24 12:12:22;;;;;;;7.50;6.80;;;35.40;27.50;;;;;;5135392;27;20500;-86
2022/07/24 12:24:39;;;;;;;6.17;5.63;;;36.10;27.10;;;;;;5122519;27;20445;-88
2022/07/24 12:35:25;;;;;;;6.50;5.80;;;36.80;27.10;;;;;;5141585;27;20440;-87
2022/07/24 13:04:46;;;;;;;7.40;6.70;;;37.20;25.30;;;;;;5120722;27;20433;-88
2022/07/24 13:07:14;;;;;;;7.33;6.73;;;36.90;25.20;;;;;;5135077;27;20456;-88
2022/07/24 13:09:41;;;;;;;6.53;5.93;;;36.90;25.50;;;;;;5102081;27;20498;-88
2022/07/24 13:15:00;;;;;;;5.87;5.37;;;36.90;25.00;;;;;;5141897;27;20998;-88
2022/07/24 13:17:27;;;;;;;6.07;5.57;;;36.80;25.80;;;;;;5137410;27;20449;-86
2022/07/24 13:20:44;;;;;;;6.70;6.10;;;36.70;25.10;;;;;;5140969;27;20463;-89
2022/07/24 13:47:31;;;;;;;6.47;5.97;;;36.00;25.90;;;;;;5122656;27;20464;-86
2022/07/24 13:49:58;;;;;;;6.67;6.10;;;36.00;26.00;;;;;;5142207;27;20536;-88
2022/07/24 14:17:11;;;;;;;6.37;5.77;;;36.50;26.10;;;;;;5142296;27;20464;-88
2022/07/24 14:32:52;;;;;;;6.87;6.27;;;35.50;26.30;;;;;;5141490;27;20531;-88
2022/07/24 14:35:20;;;;;;;6.53;5.93;;;35.80;26.20;;;;;;5138417;27;20449;-88
2022/07/24 15:03:02;;;;;;;6.90;6.30;;;37.00;25.50;;;;;;5117369;27;20425;-88
2022/07/24 15:06:20;;;;;;;6.73;6.23;;;37.30;25.20;;;;;;5122446;27;20835;-87
2022/07/24 15:13:19;;;;;;;10.13;6.63;;;37.20;24.60;;;;;;5140728;27;20445;-87
2022/07/24 15:20:20;;;;;;;7.53;6.77;;;37.00;25.10;;;;;;5139263;27;20984;-87
2022/07/24 15:22:47;;;;;;;7.43;6.50;;;37.20;24.80;;;;;;5140295;27;20474;-88
2022/07/24 15:25:14;;;;;;;7.67;6.40;;;37.20;24.80;;;;;;5120311;27;20535;-89
2022/07/24 15:27:41;;;;;;;8.30;7.50;;;37.00;25.10;;;;;;5139926;27;20476;-87
2022/07/24 15:30:33;;;;;;;7.03;6.37;;;37.00;25.20;;;;;;5102097;27;20459;-88
2022/07/24 15:33:02;;;;;;;6.60;6.00;;;37.00;25.40;;;;;;5132482;27;20472;-87
2022/07/24 15:48:40;;;;;;;7.40;6.70;;;37.30;25.20;;;;;;5143683;27;20459;-89
2022/07/24 15:51:08;;;;;;;7.97;6.60;;;37.30;25.00;;;;;;5122038;27;20444;-85
2022/07/24 15:53:35;;;;;;;7.70;7.10;;;37.20;25.40;;;;;;5137427;27;20846;-88
2022/07/24 15:56:27;;;;;;;7.17;6.57;;;37.20;25.10;;;;;;5137478;27;21268;-88
2022/07/24 15:58:54;;;;;;;7.53;6.93;;;37.10;24.90;;;;;;5137587;27;20472;-88
2022/07/24 16:01:21;;;;;;;8.30;7.00;;;37.20;25.30;;;;;;5134268;27;20479;-87
2022/07/24 16:03:48;;;;;;;7.47;6.77;;;37.20;25.40;;;;;;5125817;27;21016;-87
2022/07/24 16:06:17;;;;;;;7.07;6.47;;;37.10;25.40;;;;;;5102217;27;20445;-88
2022/07/24 16:08:44;;;;;;;7.20;6.60;;;37.30;25.20;;;;;;5105747;27;20464;-89
2022/07/24 16:11:10;;;;;;;8.60;7.77;;;37.30;25.10;;;;;;5140459;27;20456;-88
2022/07/24 16:13:37;;;;;;;7.20;6.57;;;37.40;24.90;;;;;;5108693;27;20461;-88
2022/07/24 16:16:30;;;;;;;8.23;7.40;;;37.40;25.10;;;;;;5140986;27;20437;-88
2022/07/24 16:18:57;;;;;;;9.17;8.37;;;37.40;24.80;;;;;;5142661;27;20452;-86
2022/07/24 16:21:25;;;;;;;7.50;6.80;;;37.10;24.80;;;;;;5140784;27;20448;-89
2022/07/24 16:23:52;;;;;;;7.70;7.00;;;37.00;25.30;;;;;;5113550;27;20563;-88
2022/07/24 16:26:19;;;;;;;7.90;7.20;;;36.80;25.40;;;;;;5140992;27;21193;-88
2022/07/24 16:28:46;;;;;;;7.10;6.50;;;36.90;25.30;;;;;;5124739;27;20492;-89
2022/07/24 16:31:13;;;;;;;8.83;6.80;;;36.90;25.30;;;;;;5129128;27;20458;-87
2022/07/24 16:33:40;;;;;;;7.53;6.70;;;37.00;25.50;;;;;;5110767;27;21069;-87
2022/07/24 16:36:33;;;;;;;8.20;7.40;;;37.10;25.30;;;;;;5121916;27;20444;-86
2022/07/24 16:39:00;;;;;;;7.33;6.60;;;37.00;25.30;;;;;;5124933;27;20517;-88
2022/07/24 16:41:27;;;;;;;7.90;6.93;;;37.00;25.20;;;;;;5143006;27;20448;-88
2022/07/24 16:43:54;;;;;;;7.97;7.17;;;37.10;25.30;;;;;;5085111;27;20453;-89
2022/07/24 16:46:21;;;;;;;6.97;6.30;;;36.80;25.00;;;;;;5122537;27;21258;-88
2022/07/24 16:48:49;;;;;;;6.90;6.33;;;36.70;25.50;;;;;;5144988;27;21178;-88
2022/07/24 16:54:59;;;;;;;6.67;6.00;;;36.50;25.10;;;;;;5121685;27;20928;-88
2022/07/24 16:57:26;;;;;;;7.73;6.73;;;36.50;24.20;;;;;;5123309;27;20437;-88
2022/07/24 16:59:53;;;;;;;7.83;6.23;;;36.60;24.70;;;;;;5145548;27;20445;-89
2022/07/24 17:02:20;;;;;;;8.07;7.27;;;36.20;24.40;;;;;;5096222;27;20504;-90
2022/07/24 17:04:47;;;;;;;7.00;6.30;;;35.70;25.90;;;;;;5139863;27;20448;-88
2022/07/24 17:07:14;;;;;;;7.17;6.57;;;35.90;26.30;;;;;;5144880;27;20445;-87
2022/07/24 17:09:41;;;;;;;10.67;6.30;;;36.10;26.20;;;;;;5139143;27;20473;-89
2022/07/24 17:12:35;;;;;;;8.20;7.43;;;36.20;25.70;;;;;;5125650;27;20476;-88
2022/07/24 17:15:02;;;;;;;7.00;6.40;;;36.40;26.00;;;;;;5091114;27;20475;-88
2022/07/24 17:17:57;;;;;;;9.00;7.27;;;36.50;24.90;;;;;;5141487;27;20457;-87
2022/07/24 17:20:16;;;;;;;8.27;6.70;;;36.40;25.90;;;;;;5121506;27;20530;-88
2022/07/24 17:22:44;;;;;;;7.97;6.83;;;36.60;25.80;;;;;;5141669;27;21544;-87
2022/07/24 17:25:11;;;;;;;6.93;6.33;;;36.60;25.80;;;;;;5141955;27;20448;-88
2022/07/24 17:27:39;;;;;;;9.73;7.33;;;36.70;25.70;;;;;;5102456;27;20457;-88
2022/07/24 17:30:07;;;;;;;6.87;6.23;;;36.60;25.50;;;;;;5142745;27;21241;-88
2022/07/24 17:33:00;;;;;;;7.13;6.53;;;36.50;24.70;;;;;;5145524;27;21172;-87
2022/07/24 17:35:28;;;;;;;6.30;5.50;;;36.00;24.90;;;;;;5140301;27;20831;-88
2022/07/24 17:40:46;;;;;;;10.97;7.40;;;35.70;25.70;;;;;;5123474;27;20503;-88
2022/07/24 17:43:15;;;;;;;7.80;7.20;;;35.70;26.00;;;;;;5124379;27;20521;-88
2022/07/24 17:45:42;;;;;;;7.60;6.80;;;35.90;26.70;;;;;;5120057;27;20449;-88
2022/07/24 17:48:34;;;;;;;8.00;6.87;;;36.10;26.10;;;;;;5121960;27;20449;-89
2022/07/24 17:51:01;;;;;;;7.00;6.30;;;36.20;25.60;;;;;;5143874;27;20927;-90
2022/07/24 17:53:28;;;;;;;6.53;5.87;;;35.80;25.50;;;;;;5119527;27;20478;-89
2022/07/24 17:55:55;;;;;;;7.50;6.80;;;35.60;25.90;;;;;;5139215;27;20457;-87
2022/07/24 17:58:23;;;;;;;6.50;5.90;;;35.70;25.70;;;;;;5134937;27;20952;-90
2022/07/24 18:00:50;;;;;;;7.40;6.70;;;35.60;25.70;;;;;;5122694;27;20502;-88
2022/07/24 18:03:17;;;;;;;7.30;6.60;;;35.80;25.80;;;;;;5122585;27;20469;-88
2022/07/24 18:05:44;;;;;;;7.23;6.53;;;35.90;26.00;;;;;;5102739;27;20444;-88
2022/07/24 18:08:36;;;;;;;6.73;6.10;;;35.90;26.50;;;;;;5138450;27;20456;-90
2022/07/24 18:11:03;;;;;;;7.60;6.80;;;36.00;25.70;;;;;;5105910;27;21355;-89
2022/07/24 18:13:31;;;;;;;6.40;5.80;;;36.00;25.20;;;;;;5120975;27;20483;-88
2022/07/24 18:15:59;;;;;;;6.93;6.33;;;35.60;25.50;;;;;;5122521;27;21115;-87
2022/07/24 18:18:26;;;;;;;6.50;5.83;;;35.70;25.90;;;;;;5139063;27;20433;-88
2022/07/24 18:20:52;;;;;;;7.80;6.30;;;35.80;26.70;;;;;;5111194;27;21242;-88
2022/07/24 18:26:42;;;;;;;6.10;5.27;;;35.40;25.50;;;;;;5124333;27;20445;-89
2022/07/24 18:29:10;;;;;;;5.90;5.40;;;35.20;25.10;;;;;;5121870;27;20842;-88
2022/07/24 18:31:37;;;;;;;5.57;5.07;;;35.30;25.20;;;;;;5120833;27;20988;-88
2022/07/24 18:34:29;;;;;;;6.60;5.33;;;35.40;25.20;;;;;;5111538;27;20465;-88
2022/07/24 18:40:40;;;;;;;6.17;5.40;;;35.30;25.40;;;;;;5110383;27;20414;-88
2022/07/24 18:46:50;;;;;;;5.73;4.70;;;35.20;25.20;;;;;;5103422;27;20429;-89
2022/07/24 19:00:48;;;;;;;6.53;5.10;;;34.60;25.80;;;;;;5106757;27;20963;-88
2022/07/24 19:06:58;;;;;;;5.67;5.17;;;34.30;26.30;;;;;;5137316;27;20484;-87
2022/07/24 19:09:25;;;;;;;5.20;4.70;;;34.10;26.60;;;;;;5100535;27;21026;-87
2022/07/24 19:11:52;;;;;;;5.80;5.17;;;34.00;26.80;;;;;;5140006;27;20842;-88
2022/07/24 19:14:19;;;;;;;6.00;5.37;;;34.00;27.40;;;;;;5088627;27;20469;-87
2022/07/24 19:16:46;;;;;;;4.90;4.50;;;34.00;27.00;;;;;;5103205;27;20449;-89
2022/07/24 19:22:56;;;;;;;5.20;4.70;;;34.00;27.30;;;;;;5121188;27;20513;-88
2022/07/24 19:25:23;;;;;;;5.50;5.03;;;33.90;27.60;;;;;;5135787;27;20520;-88
2022/07/24 19:27:50;;;;;;;5.40;4.93;;;33.80;27.70;;;;;;5119186;27;20463;-87
2022/07/24 19:30:17;;;;;;;5.40;4.90;;;33.70;27.60;;;;;;5127614;27;20469;-88
2022/07/24 19:32:44;;;;;;;5.43;4.93;;;33.60;28.10;;;;;;5118486;27;21022;-87
2022/07/24 19:35:11;;;;;;;5.30;4.47;;;33.60;28.70;;;;;;5130447;27;20464;-90
2022/07/24 19:37:37;;;;;;;7.67;5.37;;;33.50;28.60;;;;;;5111767;27;20453;-87
2022/07/24 19:40:32;;;;;;;5.63;5.13;;;33.50;29.10;;;;;;5135920;27;20480;-87
2022/07/24 19:42:59;;;;;;;6.10;5.50;;;33.50;29.60;;;;;;5138309;27;20465;-87
2022/07/24 19:45:26;;;;;;;8.40;6.67;;;33.30;29.80;;;;;;5138329;27;20542;-88
2022/07/24 19:47:53;;;;;;;6.77;6.17;;;33.30;29.80;;;;;;5123059;27;21288;-87
2022/07/24 19:50:20;;;;;;;6.03;5.43;;;33.10;30.30;;;;;;5118488;27;20504;-87
2022/07/24 19:52:47;;;;;;;6.77;6.07;;;33.00;30.40;;;;;;5114045;27;20753;-88
2022/07/24 19:55:14;;;;;;;6.30;5.80;;;33.00;31.20;;;;;;5106445;27;20917;-88
2022/07/24 19:57:42;;;;;;;7.63;6.83;;;32.90;32.00;;;;;;5125696;27;20453;-88
2022/07/24 20:03:01;;;;;;;9.00;6.63;;;32.90;32.00;;;;;;5126983;27;20459;-87
2022/07/24 20:06:19;;;;;;;7.03;6.33;;;32.80;32.50;;;;;;5124045;27;20441;-88
2022/07/24 20:08:46;;;;;;;6.47;5.87;;;32.70;32.90;;;;;;5125229;27;20451;-86
2022/07/24 20:11:13;;;;;;;7.80;6.00;;;32.50;33.20;;;;;;5107190;27;20753;-87
2022/07/24 20:13:41;;;;;;;7.20;6.50;;;32.50;33.00;;;;;;5139435;27;21788;-87
2022/07/24 20:19:00;;;;;;;7.73;7.03;;;32.20;33.10;;;;;;5141358;27;21161;-87
2022/07/24 20:21:27;;;;;;;7.03;6.43;;;32.10;32.90;;;;;;5109941;27;21273;-88
2022/07/24 20:23:54;;;;;;;7.40;6.70;;;32.10;33.60;;;;;;5131536;27;20449;-86
2022/07/24 20:26:21;;;;;;;7.50;6.80;;;32.00;33.60;;;;;;5122668;27;20460;-89
2022/07/24 20:28:49;;;;;;;7.67;6.43;;;32.00;34.20;;;;;;5141137;27;20462;-87
2022/07/24 20:31:16;;;;;;;7.70;6.80;;;31.90;34.20;;;;;;5124827;27;20457;-89
2022/07/24 20:33:43;;;;;;;7.77;6.83;;;31.90;34.10;;;;;;5107183;27;20468;-87
2022/07/24 20:36:35;;;;;;;7.23;6.50;;;31.90;34.40;;;;;;5121924;27;20456;-89
2022/07/24 20:39:02;;;;;;;8.37;6.67;;;31.80;33.90;;;;;;5140958;27;20988;-88
2022/07/24 20:41:29;;;;;;;9.10;6.63;;;31.80;33.70;;;;;;5123726;27;20448;-87
2022/07/24 20:43:57;;;;;;;8.70;7.17;;;31.70;34.00;;;;;;5125896;27;20468;-88
2022/07/24 20:46:24;;;;;;;8.30;7.00;;;31.60;34.50;;;;;;5137700;27;20971;-88
2022/07/24 20:48:51;;;;;;;7.00;6.30;;;31.50;35.30;;;;;;5126701;27;20963;-88
2022/07/24 20:51:18;;;;;;;8.73;7.10;;;31.40;35.70;;;;;;5123942;27;20433;-86
2022/07/24 20:56:39;;;;;;;10.60;6.93;;;31.30;37.10;;;;;;5121448;27;20445;-88
2022/07/24 20:59:07;;;;;;;8.40;7.37;;;31.10;35.30;;;;;;5121226;27;20528;-87
2022/07/24 21:02:25;;;;;;;9.03;7.50;;;30.70;35.60;;;;;;5140161;27;20951;-89
2022/07/24 21:04:52;;;;;;;8.73;7.20;;;30.70;36.60;;;;;;5123320;27;20457;-87
2022/07/24 21:07:19;;;;;;;8.60;7.70;;;30.80;36.70;;;;;;5127316;27;20456;-89
2022/07/24 21:09:46;;;;;;;8.70;7.77;;;30.80;36.70;;;;;;5125583;27;20472;-88
2022/07/24 21:12:14;;;;;;;7.93;7.13;;;30.80;36.60;;;;;;5140614;27;20559;-87
2022/07/24 21:14:42;;;;;;;8.50;7.70;;;30.80;36.60;;;;;;5141345;27;21297;-88
2022/07/24 21:17:09;;;;;;;9.87;7.50;;;30.70;36.70;;;;;;5121491;27;21266;-88
2022/07/24 21:19:36;;;;;;;10.27;8.03;;;30.70;37.00;;;;;;5124861;27;20445;-88
2022/07/24 21:24:54;;;;;;;8.80;7.97;;;30.60;38.30;;;;;;5143863;27;20951;-88
2022/07/24 21:27:21;;;;;;;9.10;8.20;;;30.50;38.20;;;;;;5104509;27;20479;-87
2022/07/24 21:29:49;;;;;;;11.13;7.57;;;30.00;37.90;;;;;;5123341;27;20474;-88
2022/07/24 21:32:17;;;;;;;9.43;8.20;;;30.10;38.10;;;;;;5123663;27;20475;-88
2022/07/24 21:34:44;;;;;;;10.40;8.40;;;30.10;37.80;;;;;;5108262;27;20453;-88
2022/07/24 21:37:11;;;;;;;8.43;7.63;;;30.20;37.70;;;;;;5122815;27;20873;-89
2022/07/24 21:40:29;;;;;;;8.50;7.70;;;30.20;37.90;;;;;;5125015;27;20449;-87
2022/07/24 21:42:56;;;;;;;8.50;6.87;;;30.20;38.30;;;;;;5141277;27;20469;-88
2022/07/24 21:45:24;;;;;;;10.53;8.10;;;30.10;38.90;;;;;;5138356;27;20449;-88
2022/07/24 21:48:17;;;;;;;11.23;7.53;;;30.10;39.60;;;;;;5140053;27;20452;-89
2022/07/24 21:50:44;;;;;;;10.33;8.13;;;30.00;40.10;;;;;;5124243;27;20465;-87
2022/07/24 21:53:11;;;;;;;8.60;7.60;;;30.00;40.40;;;;;;5122003;27;20475;-88
2022/07/24 21:55:38;;;;;;;9.03;7.53;;;29.90;40.00;;;;;;5140903;27;20622;-90
2022/07/24 22:00:58;;;;;;;7.87;7.07;;;29.90;39.80;;;;;;5107671;27;20433;-89
2022/07/24 22:03:25;;;;;;;12.70;8.53;;;29.80;39.80;;;;;;5091844;27;20467;-88
2022/07/24 22:05:52;;;;;;;10.70;8.23;;;29.70;39.80;;;;;;5121202;27;20496;-89
2022/07/24 22:08:19;;;;;;;8.70;7.80;;;29.70;39.50;;;;;;5100879;27;20441;-88
2022/07/24 22:10:47;;;;;;;10.70;8.33;;;29.70;39.80;;;;;;5087967;27;20453;-88
2022/07/24 22:38:47;;;;;;;9.00;7.77;;;29.00;41.20;;;;;;5143622;27;20417;-87
2022/07/24 22:41:15;;;;;;;9.50;8.50;;;28.90;41.60;;;;;;5129708;27;20445;-88
2022/07/24 22:46:59;;;;;;;9.80;8.57;;;28.90;42.70;;;;;;5121449;27;20485;-90
2022/07/24 22:49:27;;;;;;;9.20;8.33;;;28.90;42.90;;;;;;5136576;27;20440;-89
2022/07/24 22:51:56;;;;;;;8.43;7.60;;;28.80;43.10;;;;;;5105504;27;20451;-88
2022/07/24 22:54:25;;;;;;;10.80;8.20;;;28.80;43.30;;;;;;5116918;27;20961;-88
2022/07/24 22:56:52;;;;;;;10.03;9.00;;;28.80;43.40;;;;;;5124303;27;20569;-88
2022/07/24 22:59:20;;;;;;;10.00;8.70;;;28.80;43.60;;;;;;5105160;27;20480;-87
2022/07/24 23:01:50;;;;;;;7.63;6.90;;;28.70;43.80;;;;;;5141939;27;20449;-89
2022/07/24 23:04:17;;;;;;;10.37;8.40;;;28.70;43.50;;;;;;5103118;27;20441;-88
2022/07/24 23:06:44;;;;;;;11.50;9.37;;;28.60;43.50;;;;;;5141058;27;20448;-88
2022/07/24 23:09:11;;;;;;;10.80;9.37;;;28.60;43.30;;;;;;5116778;27;20442;-89
2022/07/24 23:11:39;;;;;;;10.20;8.40;;;28.60;43.50;;;;;;5119885;27;20976;-88
2022/07/24 23:16:58;;;;;;;10.17;9.17;;;28.40;43.50;;;;;;5119957;27;20448;-87
2022/07/24 23:19:25;;;;;;;10.70;9.30;;;28.40;43.60;;;;;;5094534;27;20535;-88
2022/07/24 23:21:52;;;;;;;10.50;8.60;;;28.30;43.80;;;;;;5123050;27;20509;-88
2022/07/24 23:24:19;;;;;;;10.93;8.73;;;28.30;44.60;;;;;;5103516;27;20883;-89
2022/07/24 23:26:49;;;;;;;10.63;8.60;;;28.20;44.80;;;;;;5113640;27;20457;-88
2022/07/24 23:32:59;;;;;;;12.00;8.43;;;28.10;44.40;;;;;;5120444;27;20449;-86
2022/07/24 23:35:26;;;;;;;10.40;8.70;;;28.10;44.40;;;;;;5100382;27;20445;-89